Irvington, New Jersey
Current Conditions -  °F | °C
As of 4:51 PM on Sunday 25 Jan 2015 (Local Time) from KEWR Reporting Station
Broken Clouds Broken Clouds  
Wind Chill: -1°   Ceiling: 20000
Heat Index:   Visibility: 10mi
Dew Point: -9°   Wind: 10mph
Humidity: 42%   Direction: 350°N
Pressure: 29.85"   Gusts: NA
Location:  40.73°N, 74.23°W
Report Text: KEWR 252151Z 35009KT 10SM FEW040 SCT120 BKN200 BKN250 03/M09 A2985 RMK AO2 SLP106 T00281089 $
Loading
Personal Weather Stations






























Interactive Weather Map New forecast layout! Learn more

10-Day Weather Forecast

Advertisements
Track Severe Weather on mobile